sensor_id;sensor_type;location;lat;lon;timestamp;P1;durP1;ratioP1;P2;durP2;ratioP2
19495;SDS011;9888;48.606;9.630;2023-02-28T00:01:13;10.20;;;3.20;;
19495;SDS011;9888;48.606;9.630;2023-02-28T00:03:41;7.30;;;3.07;;
19495;SDS011;9888;48.606;9.630;2023-02-28T00:06:08;8.48;;;3.28;;
19495;SDS011;9888;48.606;9.630;2023-02-28T00:08:36;9.27;;;3.00;;
19495;SDS011;9888;48.606;9.630;2023-02-28T00:11:04;8.30;;;3.20;;
19495;SDS011;9888;48.606;9.630;2023-02-28T00:13:34;7.60;;;3.00;;
19495;SDS011;9888;48.606;9.630;2023-02-28T00:16:05;9.40;;;2.90;;
19495;SDS011;9888;48.606;9.630;2023-02-28T00:18:35;8.93;;;3.00;;
19495;SDS011;9888;48.606;9.630;2023-02-28T00:21:03;8.87;;;3.40;;
19495;SDS011;9888;48.606;9.630;2023-02-28T00:23:32;8.50;;;3.27;;
19495;SDS011;9888;48.606;9.630;2023-02-28T00:26:01;9.80;;;3.33;;
19495;SDS011;9888;48.606;9.630;2023-02-28T00:28:28;8.87;;;3.40;;
19495;SDS011;9888;48.606;9.630;2023-02-28T00:30:55;11.13;;;3.80;;
19495;SDS011;9888;48.606;9.630;2023-02-28T00:33:26;10.30;;;3.10;;
19495;SDS011;9888;48.606;9.630;2023-02-28T00:36:00;9.73;;;3.40;;
19495;SDS011;9888;48.606;9.630;2023-02-28T00:38:35;7.90;;;2.97;;
19495;SDS011;9888;48.606;9.630;2023-02-28T00:41:02;9.23;;;3.10;;
19495;SDS011;9888;48.606;9.630;2023-02-28T00:43:30;9.60;;;3.30;;
19495;SDS011;9888;48.606;9.630;2023-02-28T00:46:01;10.00;;;3.50;;
19495;SDS011;9888;48.606;9.630;2023-02-28T00:48:29;9.53;;;2.80;;
19495;SDS011;9888;48.606;9.630;2023-02-28T00:50:57;8.57;;;3.50;;
19495;SDS011;9888;48.606;9.630;2023-02-28T00:53:24;14.00;;;3.30;;
19495;SDS011;9888;48.606;9.630;2023-02-28T00:55:51;10.07;;;3.57;;
19495;SDS011;9888;48.606;9.630;2023-02-28T00:58:19;9.27;;;2.60;;
19495;SDS011;9888;48.606;9.630;2023-02-28T01:00:46;7.47;;;2.93;;
19495;SDS011;9888;48.606;9.630;2023-02-28T01:03:17;7.93;;;2.87;;
19495;SDS011;9888;48.606;9.630;2023-02-28T01:05:45;9.90;;;3.33;;
19495;SDS011;9888;48.606;9.630;2023-02-28T01:08:13;11.15;;;3.47;;
19495;SDS011;9888;48.606;9.630;2023-02-28T01:10:41;7.97;;;2.97;;
19495;SDS011;9888;48.606;9.630;2023-02-28T01:13:09;8.23;;;3.23;;
19495;SDS011;9888;48.606;9.630;2023-02-28T01:15:37;9.02;;;3.35;;
19495;SDS011;9888;48.606;9.630;2023-02-28T01:18:14;8.90;;;3.30;;
19495;SDS011;9888;48.606;9.630;2023-02-28T01:20:41;8.43;;;3.40;;
19495;SDS011;9888;48.606;9.630;2023-02-28T01:23:09;10.45;;;3.88;;
19495;SDS011;9888;48.606;9.630;2023-02-28T01:25:37;8.87;;;3.17;;
19495;SDS011;9888;48.606;9.630;2023-02-28T01:28:05;7.97;;;2.87;;
19495;SDS011;9888;48.606;9.630;2023-02-28T01:30:32;9.60;;;3.33;;
19495;SDS011;9888;48.606;9.630;2023-02-28T01:32:59;9.20;;;3.30;;
19495;SDS011;9888;48.606;9.630;2023-02-28T01:35:26;8.83;;;3.47;;
19495;SDS011;9888;48.606;9.630;2023-02-28T01:37:53;9.60;;;2.97;;
19495;SDS011;9888;48.606;9.630;2023-02-28T01:40:21;12.57;;;3.60;;
19495;SDS011;9888;48.606;9.630;2023-02-28T01:42:48;10.50;;;3.77;;
19495;SDS011;9888;48.606;9.630;2023-02-28T01:45:19;8.57;;;3.37;;
19495;SDS011;9888;48.606;9.630;2023-02-28T01:47:54;11.20;;;3.67;;
19495;SDS011;9888;48.606;9.630;2023-02-28T01:50:35;8.90;;;3.33;;
19495;SDS011;9888;48.606;9.630;2023-02-28T01:53:06;9.67;;;3.57;;
19495;SDS011;9888;48.606;9.630;2023-02-28T01:55:36;8.03;;;3.20;;
19495;SDS011;9888;48.606;9.630;2023-02-28T01:58:06;9.17;;;4.13;;
19495;SDS011;9888;48.606;9.630;2023-02-28T02:00:35;8.57;;;2.80;;
19495;SDS011;9888;48.606;9.630;2023-02-28T02:03:06;10.90;;;3.50;;
19495;SDS011;9888;48.606;9.630;2023-02-28T02:05:36;10.32;;;3.53;;
19495;SDS011;9888;48.606;9.630;2023-02-28T02:08:05;8.33;;;3.30;;
19495;SDS011;9888;48.606;9.630;2023-02-28T02:10:39;8.63;;;3.47;;
19495;SDS011;9888;48.606;9.630;2023-02-28T02:13:27;11.67;;;3.47;;
19495;SDS011;9888;48.606;9.630;2023-02-28T02:20:12;12.00;;;3.67;;
19495;SDS011;9888;48.606;9.630;2023-02-28T02:22:52;10.27;;;3.80;;
19495;SDS011;9888;48.606;9.630;2023-02-28T02:25:32;9.03;;;3.40;;
19495;SDS011;9888;48.606;9.630;2023-02-28T02:33:29;12.10;;;3.45;;
19495;SDS011;9888;48.606;9.630;2023-02-28T02:36:26;9.70;;;3.63;;
19495;SDS011;9888;48.606;9.630;2023-02-28T02:46:44;9.93;;;3.30;;
19495;SDS011;9888;48.606;9.630;2023-02-28T02:49:18;11.20;;;3.33;;
19495;SDS011;9888;48.606;9.630;2023-02-28T02:52:00;9.65;;;3.35;;
19495;SDS011;9888;48.606;9.630;2023-02-28T02:54:36;10.57;;;3.73;;
19495;SDS011;9888;48.606;9.630;2023-02-28T02:57:16;10.40;;;4.13;;
19495;SDS011;9888;48.606;9.630;2023-02-28T03:00:04;11.83;;;4.13;;
19495;SDS011;9888;48.606;9.630;2023-02-28T03:02:36;9.60;;;4.20;;
19495;SDS011;9888;48.606;9.630;2023-02-28T03:05:12;10.53;;;4.30;;
19495;SDS011;9888;48.606;9.630;2023-02-28T03:07:44;10.05;;;3.80;;
19495;SDS011;9888;48.606;9.630;2023-02-28T03:10:30;9.27;;;3.50;;
19495;SDS011;9888;48.606;9.630;2023-02-28T03:18:29;12.00;;;3.83;;
19495;SDS011;9888;48.606;9.630;2023-02-28T03:21:09;9.57;;;3.47;;
19495;SDS011;9888;48.606;9.630;2023-02-28T03:27:06;11.30;;;3.75;;
19495;SDS011;9888;48.606;9.630;2023-02-28T03:29:44;11.63;;;4.78;;
19495;SDS011;9888;48.606;9.630;2023-02-28T03:32:29;12.73;;;4.57;;
19495;SDS011;9888;48.606;9.630;2023-02-28T03:35:23;11.93;;;4.80;;
19495;SDS011;9888;48.606;9.630;2023-02-28T03:38:02;16.88;;;4.68;;
19495;SDS011;9888;48.606;9.630;2023-02-28T03:40:46;10.90;;;4.45;;
19495;SDS011;9888;48.606;9.630;2023-02-28T03:43:22;10.03;;;4.07;;
19495;SDS011;9888;48.606;9.630;2023-02-28T03:45:58;13.15;;;4.18;;
19495;SDS011;9888;48.606;9.630;2023-02-28T03:48:36;10.57;;;3.90;;
19495;SDS011;9888;48.606;9.630;2023-02-28T03:51:03;9.80;;;2.80;;
19495;SDS011;9888;48.606;9.630;2023-02-28T03:53:40;12.68;;;4.75;;
19495;SDS011;9888;48.606;9.630;2023-02-28T03:56:16;10.10;;;4.10;;
19495;SDS011;9888;48.606;9.630;2023-02-28T03:58:55;9.52;;;4.30;;
19495;SDS011;9888;48.606;9.630;2023-02-28T04:02:00;10.63;;;4.10;;
19495;SDS011;9888;48.606;9.630;2023-02-28T04:04:28;11.85;;;4.32;;
19495;SDS011;9888;48.606;9.630;2023-02-28T04:07:05;12.90;;;4.13;;
19495;SDS011;9888;48.606;9.630;2023-02-28T04:09:34;12.03;;;4.60;;
19495;SDS011;9888;48.606;9.630;2023-02-28T04:12:01;13.07;;;5.75;;
19495;SDS011;9888;48.606;9.630;2023-02-28T04:17:50;11.00;;;5.10;;
19495;SDS011;9888;48.606;9.630;2023-02-28T04:20:18;11.93;;;4.90;;
19495;SDS011;9888;48.606;9.630;2023-02-28T04:22:45;12.90;;;5.00;;
19495;SDS011;9888;48.606;9.630;2023-02-28T04:25:12;12.27;;;5.17;;
19495;SDS011;9888;48.606;9.630;2023-02-28T04:27:40;12.10;;;4.30;;
19495;SDS011;9888;48.606;9.630;2023-02-28T04:30:10;10.73;;;4.50;;
19495;SDS011;9888;48.606;9.630;2023-02-28T04:32:37;15.30;;;4.97;;
19495;SDS011;9888;48.606;9.630;2023-02-28T04:35:05;12.38;;;5.15;;
19495;SDS011;9888;48.606;9.630;2023-02-28T04:37:56;11.98;;;5.13;;
19495;SDS011;9888;48.606;9.630;2023-02-28T04:40:23;13.20;;;4.63;;
19495;SDS011;9888;48.606;9.630;2023-02-28T04:42:51;16.10;;;4.90;;
19495;SDS011;9888;48.606;9.630;2023-02-28T04:45:18;15.10;;;4.97;;
19495;SDS011;9888;48.606;9.630;2023-02-28T04:47:44;12.73;;;5.35;;
19495;SDS011;9888;48.606;9.630;2023-02-28T04:50:13;13.10;;;5.30;;
19495;SDS011;9888;48.606;9.630;2023-02-28T04:52:41;13.70;;;5.63;;
19495;SDS011;9888;48.606;9.630;2023-02-28T04:55:08;11.93;;;5.30;;
19495;SDS011;9888;48.606;9.630;2023-02-28T04:57:39;14.40;;;5.63;;
19495;SDS011;9888;48.606;9.630;2023-02-28T05:00:08;12.05;;;5.15;;
19495;SDS011;9888;48.606;9.630;2023-02-28T05:02:37;12.17;;;5.40;;
19495;SDS011;9888;48.606;9.630;2023-02-28T05:05:04;14.05;;;5.15;;
19495;SDS011;9888;48.606;9.630;2023-02-28T05:07:31;15.23;;;4.93;;
19495;SDS011;9888;48.606;9.630;2023-02-28T05:09:59;12.03;;;5.20;;
19495;SDS011;9888;48.606;9.630;2023-02-28T05:12:26;12.17;;;3.90;;
19495;SDS011;9888;48.606;9.630;2023-02-28T05:14:54;13.80;;;5.40;;
19495;SDS011;9888;48.606;9.630;2023-02-28T05:17:22;12.83;;;5.50;;
19495;SDS011;9888;48.606;9.630;2023-02-28T05:19:49;13.43;;;5.70;;
19495;SDS011;9888;48.606;9.630;2023-02-28T05:22:16;13.00;;;5.00;;
19495;SDS011;9888;48.606;9.630;2023-02-28T05:24:44;11.63;;;4.83;;
19495;SDS011;9888;48.606;9.630;2023-02-28T05:27:14;14.67;;;5.07;;
19495;SDS011;9888;48.606;9.630;2023-02-28T05:29:43;14.32;;;4.88;;
19495;SDS011;9888;48.606;9.630;2023-02-28T05:32:14;15.98;;;5.38;;
19495;SDS011;9888;48.606;9.630;2023-02-28T05:34:41;15.03;;;6.20;;
19495;SDS011;9888;48.606;9.630;2023-02-28T05:37:15;13.60;;;5.77;;
19495;SDS011;9888;48.606;9.630;2023-02-28T05:39:43;13.73;;;5.50;;
19495;SDS011;9888;48.606;9.630;2023-02-28T05:42:10;13.17;;;5.10;;
19495;SDS011;9888;48.606;9.630;2023-02-28T05:44:38;11.82;;;5.22;;
19495;SDS011;9888;48.606;9.630;2023-02-28T05:47:05;13.63;;;5.40;;
19495;SDS011;9888;48.606;9.630;2023-02-28T05:49:31;13.47;;;6.47;;
19495;SDS011;9888;48.606;9.630;2023-02-28T05:51:58;10.38;;;3.97;;
19495;SDS011;9888;48.606;9.630;2023-02-28T05:54:25;15.50;;;6.13;;
19495;SDS011;9888;48.606;9.630;2023-02-28T06:00:14;14.80;;;5.87;;
19495;SDS011;9888;48.606;9.630;2023-02-28T06:02:44;12.97;;;5.93;;
19495;SDS011;9888;48.606;9.630;2023-02-28T06:05:17;15.90;;;5.40;;
19495;SDS011;9888;48.606;9.630;2023-02-28T06:07:49;15.07;;;6.10;;
19495;SDS011;9888;48.606;9.630;2023-02-28T06:10:19;15.15;;;6.22;;
19495;SDS011;9888;48.606;9.630;2023-02-28T06:12:47;15.27;;;6.17;;
19495;SDS011;9888;48.606;9.630;2023-02-28T06:15:14;17.00;;;6.97;;
19495;SDS011;9888;48.606;9.630;2023-02-28T06:20:55;15.80;;;5.83;;
19495;SDS011;9888;48.606;9.630;2023-02-28T06:23:24;15.20;;;5.43;;
19495;SDS011;9888;48.606;9.630;2023-02-28T06:25:52;14.53;;;6.30;;
19495;SDS011;9888;48.606;9.630;2023-02-28T06:28:25;13.88;;;6.30;;
19495;SDS011;9888;48.606;9.630;2023-02-28T06:30:53;15.35;;;6.93;;
19495;SDS011;9888;48.606;9.630;2023-02-28T06:33:21;17.50;;;6.68;;
19495;SDS011;9888;48.606;9.630;2023-02-28T06:35:50;15.13;;;6.30;;
19495;SDS011;9888;48.606;9.630;2023-02-28T06:38:18;17.87;;;6.80;;
19495;SDS011;9888;48.606;9.630;2023-02-28T06:43:52;13.20;;;4.40;;
19495;SDS011;9888;48.606;9.630;2023-02-28T06:46:19;14.73;;;6.47;;
19495;SDS011;9888;48.606;9.630;2023-02-28T06:48:47;19.85;;;6.40;;
19495;SDS011;9888;48.606;9.630;2023-02-28T06:51:18;13.75;;;5.90;;
19495;SDS011;9888;48.606;9.630;2023-02-28T06:53:47;14.50;;;5.80;;
19495;SDS011;9888;48.606;9.630;2023-02-28T06:56:18;21.87;;;7.10;;
19495;SDS011;9888;48.606;9.630;2023-02-28T06:58:49;14.05;;;5.88;;
19495;SDS011;9888;48.606;9.630;2023-02-28T07:01:18;31.73;;;7.20;;
19495;SDS011;9888;48.606;9.630;2023-02-28T07:03:53;18.17;;;7.10;;
19495;SDS011;9888;48.606;9.630;2023-02-28T07:09:43;28.42;;;8.20;;
19495;SDS011;9888;48.606;9.630;2023-02-28T07:12:11;15.53;;;7.30;;
19495;SDS011;9888;48.606;9.630;2023-02-28T07:14:38;16.98;;;6.35;;
19495;SDS011;9888;48.606;9.630;2023-02-28T07:17:07;17.77;;;7.90;;
19495;SDS011;9888;48.606;9.630;2023-02-28T07:19:37;16.53;;;6.77;;
19495;SDS011;9888;48.606;9.630;2023-02-28T07:31:58;16.77;;;7.13;;
19495;SDS011;9888;48.606;9.630;2023-02-28T07:34:25;16.80;;;6.80;;
19495;SDS011;9888;48.606;9.630;2023-02-28T07:36:53;15.70;;;6.20;;
19495;SDS011;9888;48.606;9.630;2023-02-28T07:39:21;13.50;;;5.00;;
19495;SDS011;9888;48.606;9.630;2023-02-28T07:41:49;22.77;;;6.80;;
19495;SDS011;9888;48.606;9.630;2023-02-28T07:47:40;15.77;;;5.75;;
19495;SDS011;9888;48.606;9.630;2023-02-28T07:50:14;12.60;;;5.43;;
19495;SDS011;9888;48.606;9.630;2023-02-28T07:52:42;16.00;;;5.78;;
19495;SDS011;9888;48.606;9.630;2023-02-28T07:58:02;13.37;;;3.57;;
19495;SDS011;9888;48.606;9.630;2023-02-28T08:00:30;13.00;;;4.43;;
19495;SDS011;9888;48.606;9.630;2023-02-28T08:02:58;21.00;;;8.00;;
19495;SDS011;9888;48.606;9.630;2023-02-28T08:05:25;17.50;;;8.00;;
19495;SDS011;9888;48.606;9.630;2023-02-28T08:07:57;13.97;;;6.70;;
19495;SDS011;9888;48.606;9.630;2023-02-28T08:10:24;17.35;;;7.35;;
19495;SDS011;9888;48.606;9.630;2023-02-28T08:12:53;16.88;;;7.00;;
19495;SDS011;9888;48.606;9.630;2023-02-28T08:15:20;17.33;;;7.20;;
19495;SDS011;9888;48.606;9.630;2023-02-28T08:17:47;17.00;;;7.67;;
19495;SDS011;9888;48.606;9.630;2023-02-28T08:20:22;16.88;;;7.38;;
19495;SDS011;9888;48.606;9.630;2023-02-28T08:22:49;16.57;;;7.73;;
19495;SDS011;9888;48.606;9.630;2023-02-28T08:25:17;16.08;;;6.45;;
19495;SDS011;9888;48.606;9.630;2023-02-28T08:27:44;18.50;;;8.50;;
19495;SDS011;9888;48.606;9.630;2023-02-28T08:30:11;18.17;;;8.53;;
19495;SDS011;9888;48.606;9.630;2023-02-28T08:32:40;19.13;;;8.23;;
19495;SDS011;9888;48.606;9.630;2023-02-28T08:37:54;19.37;;;8.33;;
19495;SDS011;9888;48.606;9.630;2023-02-28T08:43:43;18.10;;;7.37;;
19495;SDS011;9888;48.606;9.630;2023-02-28T08:46:12;19.37;;;8.50;;
19495;SDS011;9888;48.606;9.630;2023-02-28T08:48:39;23.90;;;7.90;;
19495;SDS011;9888;48.606;9.630;2023-02-28T08:51:13;19.20;;;7.67;;
19495;SDS011;9888;48.606;9.630;2023-02-28T08:53:47;19.20;;;7.90;;
19495;SDS011;9888;48.606;9.630;2023-02-28T08:56:19;15.93;;;6.50;;
19495;SDS011;9888;48.606;9.630;2023-02-28T08:58:49;17.73;;;7.60;;
19495;SDS011;9888;48.606;9.630;2023-02-28T09:04:42;15.00;;;6.67;;
19495;SDS011;9888;48.606;9.630;2023-02-28T09:07:13;16.73;;;6.63;;
19495;SDS011;9888;48.606;9.630;2023-02-28T09:09:39;23.00;;;7.97;;
19495;SDS011;9888;48.606;9.630;2023-02-28T09:12:20;17.63;;;8.27;;
19495;SDS011;9888;48.606;9.630;2023-02-28T09:14:49;16.73;;;8.70;;
19495;SDS011;9888;48.606;9.630;2023-02-28T09:17:18;17.60;;;8.63;;
19495;SDS011;9888;48.606;9.630;2023-02-28T09:19:47;20.87;;;8.90;;
19495;SDS011;9888;48.606;9.630;2023-02-28T09:22:19;18.30;;;8.37;;
19495;SDS011;9888;48.606;9.630;2023-02-28T09:24:48;18.50;;;8.70;;
19495;SDS011;9888;48.606;9.630;2023-02-28T09:27:20;17.93;;;8.20;;
19495;SDS011;9888;48.606;9.630;2023-02-28T09:29:47;18.97;;;8.17;;
19495;SDS011;9888;48.606;9.630;2023-02-28T09:32:14;16.40;;;7.97;;
19495;SDS011;9888;48.606;9.630;2023-02-28T09:34:43;19.83;;;8.90;;
19495;SDS011;9888;48.606;9.630;2023-02-28T09:37:10;19.57;;;8.13;;
19495;SDS011;9888;48.606;9.630;2023-02-28T09:39:37;18.67;;;8.13;;
19495;SDS011;9888;48.606;9.630;2023-02-28T09:42:03;15.87;;;8.20;;
19495;SDS011;9888;48.606;9.630;2023-02-28T09:44:39;15.93;;;6.83;;
19495;SDS011;9888;48.606;9.630;2023-02-28T09:47:13;17.03;;;6.63;;
19495;SDS011;9888;48.606;9.630;2023-02-28T09:49:42;15.17;;;7.30;;
19495;SDS011;9888;48.606;9.630;2023-02-28T09:52:23;15.53;;;8.17;;
19495;SDS011;9888;48.606;9.630;2023-02-28T09:54:55;29.00;;;8.57;;
19495;SDS011;9888;48.606;9.630;2023-02-28T09:57:33;18.40;;;7.30;;
19495;SDS011;9888;48.606;9.630;2023-02-28T10:00:18;16.70;;;7.67;;
19495;SDS011;9888;48.606;9.630;2023-02-28T10:02:58;24.60;;;10.60;;
19495;SDS011;9888;48.606;9.630;2023-02-28T10:05:37;19.20;;;7.57;;
19495;SDS011;9888;48.606;9.630;2023-02-28T10:08:13;19.90;;;7.90;;
19495;SDS011;9888;48.606;9.630;2023-02-28T10:10:48;19.13;;;8.67;;
19495;SDS011;9888;48.606;9.630;2023-02-28T10:13:35;21.37;;;8.60;;
19495;SDS011;9888;48.606;9.630;2023-02-28T10:16:10;17.50;;;8.40;;
19495;SDS011;9888;48.606;9.630;2023-02-28T10:21:25;24.83;;;9.90;;
19495;SDS011;9888;48.606;9.630;2023-02-28T10:24:01;20.40;;;9.30;;
19495;SDS011;9888;48.606;9.630;2023-02-28T10:26:29;23.80;;;8.83;;
19495;SDS011;9888;48.606;9.630;2023-02-28T10:28:58;19.43;;;9.00;;
19495;SDS011;9888;48.606;9.630;2023-02-28T10:31:25;20.20;;;8.60;;
19495;SDS011;9888;48.606;9.630;2023-02-28T10:33:52;17.80;;;8.20;;
19495;SDS011;9888;48.606;9.630;2023-02-28T10:36:19;19.50;;;8.77;;
19495;SDS011;9888;48.606;9.630;2023-02-28T10:38:48;17.50;;;8.93;;
19495;SDS011;9888;48.606;9.630;2023-02-28T10:41:31;19.87;;;8.93;;
19495;SDS011;9888;48.606;9.630;2023-02-28T10:47:23;23.23;;;10.20;;
19495;SDS011;9888;48.606;9.630;2023-02-28T10:49:50;29.33;;;14.53;;
19495;SDS011;9888;48.606;9.630;2023-02-28T10:52:37;51.07;;;13.70;;
19495;SDS011;9888;48.606;9.630;2023-02-28T10:55:21;63.93;;;15.00;;
19495;SDS011;9888;48.606;9.630;2023-02-28T10:57:57;45.93;;;14.57;;
19495;SDS011;9888;48.606;9.630;2023-02-28T11:00:24;133.17;;;18.83;;
19495;SDS011;9888;48.606;9.630;2023-02-28T11:06:31;19.27;;;9.00;;
19495;SDS011;9888;48.606;9.630;2023-02-28T11:09:01;30.73;;;10.43;;
19495;SDS011;9888;48.606;9.630;2023-02-28T11:11:45;20.23;;;10.30;;
19495;SDS011;9888;48.606;9.630;2023-02-28T11:14:21;18.63;;;10.37;;
19495;SDS011;9888;48.606;9.630;2023-02-28T11:16:48;19.10;;;10.07;;
19495;SDS011;9888;48.606;9.630;2023-02-28T11:19:37;31.03;;;10.93;;
19495;SDS011;9888;48.606;9.630;2023-02-28T11:22:05;22.47;;;11.80;;
19495;SDS011;9888;48.606;9.630;2023-02-28T11:24:34;18.43;;;10.40;;
19495;SDS011;9888;48.606;9.630;2023-02-28T11:27:24;18.80;;;12.07;;
19495;SDS011;9888;48.606;9.630;2023-02-28T11:30:22;19.80;;;9.87;;
19495;SDS011;9888;48.606;9.630;2023-02-28T11:32:54;20.50;;;11.30;;
19495;SDS011;9888;48.606;9.630;2023-02-28T11:35:33;21.90;;;10.30;;
19495;SDS011;9888;48.606;9.630;2023-02-28T11:38:05;19.93;;;11.20;;
19495;SDS011;9888;48.606;9.630;2023-02-28T11:40:52;16.20;;;9.73;;
19495;SDS011;9888;48.606;9.630;2023-02-28T11:51:50;19.80;;;10.97;;
19495;SDS011;9888;48.606;9.630;2023-02-28T11:57:47;19.17;;;10.40;;
19495;SDS011;9888;48.606;9.630;2023-02-28T12:00:31;17.63;;;10.40;;
19495;SDS011;9888;48.606;9.630;2023-02-28T12:06:19;17.00;;;10.50;;
19495;SDS011;9888;48.606;9.630;2023-02-28T12:14:57;19.50;;;11.30;;
19495;SDS011;9888;48.606;9.630;2023-02-28T12:20:15;18.93;;;12.10;;
19495;SDS011;9888;48.606;9.630;2023-02-28T12:25:49;20.20;;;10.40;;
19495;SDS011;9888;48.606;9.630;2023-02-28T12:28:38;17.70;;;10.90;;
19495;SDS011;9888;48.606;9.630;2023-02-28T12:31:22;18.00;;;10.13;;
19495;SDS011;9888;48.606;9.630;2023-02-28T12:33:57;20.97;;;11.80;;
19495;SDS011;9888;48.606;9.630;2023-02-28T12:36:29;20.57;;;11.20;;
19495;SDS011;9888;48.606;9.630;2023-02-28T12:42:33;17.43;;;10.77;;
19495;SDS011;9888;48.606;9.630;2023-02-28T12:47:37;17.53;;;11.27;;
19495;SDS011;9888;48.606;9.630;2023-02-28T12:50:07;25.50;;;12.07;;
19495;SDS011;9888;48.606;9.630;2023-02-28T13:13:05;17.47;;;11.00;;
19495;SDS011;9888;48.606;9.630;2023-02-28T13:15:39;19.80;;;11.43;;
19495;SDS011;9888;48.606;9.630;2023-02-28T13:18:26;19.53;;;11.67;;
19495;SDS011;9888;48.606;9.630;2023-02-28T13:20:57;16.63;;;10.60;;
19495;SDS011;9888;48.606;9.630;2023-02-28T13:23:41;18.73;;;10.87;;
19495;SDS011;9888;48.606;9.630;2023-02-28T13:34:34;16.93;;;10.70;;
19495;SDS011;9888;48.606;9.630;2023-02-28T13:40:47;19.50;;;10.40;;
19495;SDS011;9888;48.606;9.630;2023-02-28T13:42:56;17.43;;;10.40;;
19495;SDS011;9888;48.606;9.630;2023-02-28T13:45:26;19.40;;;10.80;;
19495;SDS011;9888;48.606;9.630;2023-02-28T13:48:15;20.40;;;11.37;;
19495;SDS011;9888;48.606;9.630;2023-02-28T13:50:45;21.17;;;11.00;;
19495;SDS011;9888;48.606;9.630;2023-02-28T14:01:25;22.07;;;10.37;;
19495;SDS011;9888;48.606;9.630;2023-02-28T14:04:23;17.47;;;10.37;;
19495;SDS011;9888;48.606;9.630;2023-02-28T14:07:07;18.07;;;10.53;;
19495;SDS011;9888;48.606;9.630;2023-02-28T14:09:45;18.23;;;10.73;;
19495;SDS011;9888;48.606;9.630;2023-02-28T14:17:56;16.70;;;10.60;;
19495;SDS011;9888;48.606;9.630;2023-02-28T14:20:29;18.77;;;11.33;;
19495;SDS011;9888;48.606;9.630;2023-02-28T14:26:31;15.73;;;10.00;;
19495;SDS011;9888;48.606;9.630;2023-02-28T14:29:18;18.57;;;10.00;;
19495;SDS011;9888;48.606;9.630;2023-02-28T14:35:29;20.13;;;10.07;;
19495;SDS011;9888;48.606;9.630;2023-02-28T14:38:05;17.50;;;9.97;;
19495;SDS011;9888;48.606;9.630;2023-02-28T14:40:39;16.33;;;10.07;;
19495;SDS011;9888;48.606;9.630;2023-02-28T14:43:16;17.87;;;9.63;;
19495;SDS011;9888;48.606;9.630;2023-02-28T14:46:02;16.27;;;9.80;;
19495;SDS011;9888;48.606;9.630;2023-02-28T14:48:32;22.33;;;10.13;;
19495;SDS011;9888;48.606;9.630;2023-02-28T14:51:06;19.63;;;11.17;;
19495;SDS011;9888;48.606;9.630;2023-02-28T14:53:38;17.53;;;9.73;;
19495;SDS011;9888;48.606;9.630;2023-02-28T14:56:22;21.10;;;11.20;;
19495;SDS011;9888;48.606;9.630;2023-02-28T15:02:21;21.23;;;10.80;;
19495;SDS011;9888;48.606;9.630;2023-02-28T15:05:33;16.63;;;10.40;;
19495;SDS011;9888;48.606;9.630;2023-02-28T15:07:43;17.90;;;9.50;;
19495;SDS011;9888;48.606;9.630;2023-02-28T15:10:15;20.63;;;9.23;;
19495;SDS011;9888;48.606;9.630;2023-02-28T15:13:05;18.70;;;10.67;;
19495;SDS011;9888;48.606;9.630;2023-02-28T15:18:23;15.50;;;8.97;;
19495;SDS011;9888;48.606;9.630;2023-02-28T15:21:02;15.07;;;9.10;;
19495;SDS011;9888;48.606;9.630;2023-02-28T15:23:35;19.37;;;9.47;;
19495;SDS011;9888;48.606;9.630;2023-02-28T15:26:03;20.47;;;9.90;;
19495;SDS011;9888;48.606;9.630;2023-02-28T15:28:31;17.90;;;9.67;;
19495;SDS011;9888;48.606;9.630;2023-02-28T15:31:00;18.00;;;10.03;;
19495;SDS011;9888;48.606;9.630;2023-02-28T15:33:30;17.23;;;9.43;;
19495;SDS011;9888;48.606;9.630;2023-02-28T15:36:14;17.87;;;9.00;;
19495;SDS011;9888;48.606;9.630;2023-02-28T15:38:46;18.17;;;9.50;;
19495;SDS011;9888;48.606;9.630;2023-02-28T15:41:24;21.43;;;9.17;;
19495;SDS011;9888;48.606;9.630;2023-02-28T15:46:43;24.67;;;10.13;;
19495;SDS011;9888;48.606;9.630;2023-02-28T15:49:21;48.27;;;12.33;;
19495;SDS011;9888;48.606;9.630;2023-02-28T15:51:50;17.23;;;10.20;;
19495;SDS011;9888;48.606;9.630;2023-02-28T15:54:20;28.17;;;10.37;;
19495;SDS011;9888;48.606;9.630;2023-02-28T15:56:56;37.43;;;12.10;;
19495;SDS011;9888;48.606;9.630;2023-02-28T15:59:27;16.20;;;9.90;;
19495;SDS011;9888;48.606;9.630;2023-02-28T16:02:03;18.43;;;9.63;;
19495;SDS011;9888;48.606;9.630;2023-02-28T16:04:36;16.10;;;9.20;;
19495;SDS011;9888;48.606;9.630;2023-02-28T16:07:19;18.60;;;10.40;;
19495;SDS011;9888;48.606;9.630;2023-02-28T16:09:46;19.80;;;9.20;;
19495;SDS011;9888;48.606;9.630;2023-02-28T16:12:13;23.27;;;9.70;;
19495;SDS011;9888;48.606;9.630;2023-02-28T16:14:41;17.87;;;9.63;;
19495;SDS011;9888;48.606;9.630;2023-02-28T16:17:19;19.57;;;9.50;;
19495;SDS011;9888;48.606;9.630;2023-02-28T16:19:48;19.67;;;9.70;;
19495;SDS011;9888;48.606;9.630;2023-02-28T16:22:15;19.50;;;9.83;;
19495;SDS011;9888;48.606;9.630;2023-02-28T16:24:42;19.27;;;10.40;;
19495;SDS011;9888;48.606;9.630;2023-02-28T16:27:14;20.10;;;8.70;;
19495;SDS011;9888;48.606;9.630;2023-02-28T16:29:44;19.60;;;9.10;;
19495;SDS011;9888;48.606;9.630;2023-02-28T16:32:12;19.30;;;9.53;;
19495;SDS011;9888;48.606;9.630;2023-02-28T16:34:43;22.10;;;9.07;;
19495;SDS011;9888;48.606;9.630;2023-02-28T16:37:13;16.53;;;9.30;;
19495;SDS011;9888;48.606;9.630;2023-02-28T16:39:42;17.40;;;8.10;;
19495;SDS011;9888;48.606;9.630;2023-02-28T16:42:27;14.70;;;7.83;;
19495;SDS011;9888;48.606;9.630;2023-02-28T16:44:57;16.40;;;8.10;;
19495;SDS011;9888;48.606;9.630;2023-02-28T16:47:25;18.20;;;7.90;;
19495;SDS011;9888;48.606;9.630;2023-02-28T16:49:52;20.90;;;8.00;;
19495;SDS011;9888;48.606;9.630;2023-02-28T16:52:18;17.07;;;8.20;;
19495;SDS011;9888;48.606;9.630;2023-02-28T16:54:45;15.60;;;7.67;;
19495;SDS011;9888;48.606;9.630;2023-02-28T16:57:18;16.40;;;7.67;;
19495;SDS011;9888;48.606;9.630;2023-02-28T16:59:49;18.27;;;7.70;;
19495;SDS011;9888;48.606;9.630;2023-02-28T17:02:17;15.40;;;7.23;;
19495;SDS011;9888;48.606;9.630;2023-02-28T17:04:45;23.50;;;8.20;;
19495;SDS011;9888;48.606;9.630;2023-02-28T17:07:13;22.97;;;10.20;;
19495;SDS011;9888;48.606;9.630;2023-02-28T17:09:42;27.77;;;9.73;;
19495;SDS011;9888;48.606;9.630;2023-02-28T17:12:09;26.90;;;9.73;;
19495;SDS011;9888;48.606;9.630;2023-02-28T17:14:36;18.33;;;8.10;;
19495;SDS011;9888;48.606;9.630;2023-02-28T17:17:06;22.40;;;9.90;;
19495;SDS011;9888;48.606;9.630;2023-02-28T17:19:35;19.73;;;9.17;;
19495;SDS011;9888;48.606;9.630;2023-02-28T17:22:04;20.80;;;9.00;;
19495;SDS011;9888;48.606;9.630;2023-02-28T17:24:31;21.03;;;8.00;;
19495;SDS011;9888;48.606;9.630;2023-02-28T17:26:58;22.67;;;9.40;;
19495;SDS011;9888;48.606;9.630;2023-02-28T17:29:25;27.53;;;9.40;;
19495;SDS011;9888;48.606;9.630;2023-02-28T17:31:52;15.67;;;7.70;;
19495;SDS011;9888;48.606;9.630;2023-02-28T17:34:19;19.63;;;8.83;;
19495;SDS011;9888;48.606;9.630;2023-02-28T17:36:47;19.10;;;9.20;;
19495;SDS011;9888;48.606;9.630;2023-02-28T17:39:16;16.90;;;8.40;;
19495;SDS011;9888;48.606;9.630;2023-02-28T17:41:54;17.87;;;7.47;;
19495;SDS011;9888;48.606;9.630;2023-02-28T17:44:21;19.80;;;8.43;;
19495;SDS011;9888;48.606;9.630;2023-02-28T17:46:51;19.43;;;8.70;;
19495;SDS011;9888;48.606;9.630;2023-02-28T17:49:20;17.23;;;8.10;;
19495;SDS011;9888;48.606;9.630;2023-02-28T17:51:48;19.90;;;7.90;;
19495;SDS011;9888;48.606;9.630;2023-02-28T17:54:16;18.03;;;8.07;;
19495;SDS011;9888;48.606;9.630;2023-02-28T17:56:43;16.60;;;7.80;;
19495;SDS011;9888;48.606;9.630;2023-02-28T17:59:10;17.43;;;8.17;;
19495;SDS011;9888;48.606;9.630;2023-02-28T18:01:38;19.83;;;9.10;;
19495;SDS011;9888;48.606;9.630;2023-02-28T18:04:05;17.50;;;8.30;;
19495;SDS011;9888;48.606;9.630;2023-02-28T18:06:58;20.13;;;8.90;;
19495;SDS011;9888;48.606;9.630;2023-02-28T18:09:26;22.03;;;10.03;;